Time;durP1;ratioP1;P1;durP2;ratioP2;P2;SDS_P1;SDS_P2;PMS_P1;PMS_P2;Temp;Humidity;BMP_temperature;BMP_pressure;BME280_temperature;BME280_humidity;BME280_pressure;Samples;Min_cycle;Max_cycle;Signal;HPM_P1;HPM_P2
2022/12/22 03:26:19;;;;;;;16.35;9.70;;;;;;;2.09;79.47;92491.22;2070960;69;20131;-77
2022/12/22 03:28:47;;;;;;;19.23;9.20;;;;;;;2.29;78.85;92475.59;2070516;69;20171;-77
2022/12/22 03:31:14;;;;;;;19.65;9.30;;;;;;;2.19;78.94;92471.94;2064607;69;20183;-77
2022/12/22 03:33:42;;;;;;;18.13;8.70;;;;;;;2.26;79.15;92473.94;2064797;69;20190;-75
2022/12/22 03:36:08;;;;;;;19.08;9.00;;;;;;;2.31;78.52;92475.78;2064572;69;20176;-75
2022/12/22 03:38:34;;;;;;;16.98;8.93;;;;;;;2.24;78.49;92466.16;2064450;69;20156;-75
2022/12/22 03:41:00;;;;;;;18.58;8.93;;;;;;;2.11;78.72;92465.66;2064426;69;20188;-75
2022/12/22 03:46:30;;;;;;;16.58;8.88;;;;;;;2.38;78.51;92465.91;2063904;69;20214;-76
2022/12/22 03:49:09;;;;;;;17.52;9.25;;;;;;;2.40;78.04;92461.28;2064652;69;20196;-75
2022/12/22 03:51:44;;;;;;;18.52;8.90;;;;;;;2.50;78.25;92466.97;2064083;69;20270;-75
2022/12/22 03:54:12;;;;;;;21.77;10.05;;;;;;;1.84;80.72;92465.41;2064478;69;20261;-75
2022/12/22 03:56:38;;;;;;;23.85;9.73;;;;;;;2.08;80.24;92469.59;2064628;69;20230;-75
2022/12/22 03:59:04;;;;;;;20.88;9.10;;;;;;;2.23;79.45;92483.41;2064527;69;20144;-76
2022/12/22 04:01:31;;;;;;;19.85;9.73;;;;;;;2.21;79.19;92486.00;2064561;69;20145;-75
2022/12/22 04:03:57;;;;;;;18.80;9.00;;;;;;;2.25;78.81;92486.38;2064682;69;20212;-75
2022/12/22 04:06:24;;;;;;;15.48;7.53;;;;;;;2.29;79.22;92487.47;2064631;69;20148;-75
2022/12/22 04:08:50;;;;;;;18.45;9.25;;;;;;;1.78;82.01;92485.03;2064555;69;20249;-76
2022/12/22 04:14:02;;;;;;;14.20;7.70;;;;;;;2.31;81.36;92469.47;2064142;69;20228;-75
2022/12/22 04:16:28;;;;;;;18.08;8.77;;;;;;;2.11;81.45;92462.88;2064700;69;20252;-75
2022/12/22 04:18:54;;;;;;;17.17;9.05;;;;;;;2.19;80.90;92456.00;2064021;69;20230;-75
2022/12/22 04:21:19;;;;;;;22.48;9.77;;;;;;;2.33;80.19;92439.09;2063980;69;20174;-75
2022/12/22 04:23:45;;;;;;;23.90;8.82;;;;;;;2.38;79.81;92438.88;2064743;69;20476;-75
2022/12/22 04:26:12;;;;;;;18.55;9.30;;;;;;;2.46;79.29;92447.91;2064369;69;20220;-76
2022/12/22 04:28:37;;;;;;;16.55;8.60;;;;;;;2.44;79.36;92435.91;2064512;69;20177;-75
2022/12/22 04:31:03;;;;;;;17.60;8.20;;;;;;;2.54;79.29;92442.31;2064167;69;20546;-76
2022/12/22 04:33:29;;;;;;;17.55;8.57;;;;;;;2.15;81.66;92450.09;2064568;69;20133;-76
2022/12/22 04:35:55;;;;;;;16.77;8.15;;;;;;;2.44;80.17;92449.78;2064632;69;20215;-77
2022/12/22 04:38:20;;;;;;;16.95;8.60;;;;;;;2.55;79.23;92441.75;2064435;69;20215;-76
2022/12/22 04:40:46;;;;;;;13.63;7.28;;;;;;;2.59;78.82;92444.13;2064453;69;20144;-75
2022/12/22 04:43:11;;;;;;;22.65;10.30;;;;;;;2.20;80.00;92437.28;2064513;69;20463;-75
2022/12/22 04:45:37;;;;;;;23.95;10.93;;;;;;;2.39;79.17;92436.84;2064660;69;20324;-75
2022/12/22 04:48:03;;;;;;;22.38;10.55;;;;;;;2.35;78.70;92447.63;2064628;69;20153;-75
2022/12/22 04:50:28;;;;;;;36.03;16.20;;;;;;;2.23;80.18;92448.03;2064509;69;20148;-75
2022/12/22 04:52:54;;;;;;;36.35;15.88;;;;;;;1.91;80.43;92450.75;2064295;69;20149;-75
2022/12/22 04:55:19;;;;;;;29.50;13.80;;;;;;;2.06;81.42;92452.72;2064318;69;20149;-75
2022/12/22 04:57:45;;;;;;;23.85;12.02;;;;;;;2.31;80.40;92458.38;2061555;69;20160;-75
2022/12/22 05:00:11;;;;;;;19.30;10.93;;;;;;;2.40;79.31;92461.28;2065008;69;20152;-75
2022/12/22 05:02:37;;;;;;;22.95;11.68;;;;;;;2.40;79.43;92463.31;2065198;69;20153;-77
2022/12/22 05:05:02;;;;;;;22.73;11.82;;;;;;;2.15;80.73;92457.69;2065119;69;20587;-76
2022/12/22 05:07:28;;;;;;;25.33;13.02;;;;;;;1.91;82.52;92457.03;2065115;69;20539;-75
2022/12/22 05:09:54;;;;;;;24.65;12.23;;;;;;;2.30;80.98;92457.63;2064994;69;20289;-76
2022/12/22 05:15:04;;;;;;;26.20;14.00;;;;;;;2.33;80.06;92445.38;2065402;69;20165;-75
2022/12/22 05:17:30;;;;;;;30.88;16.80;;;;;;;2.44;80.19;92427.56;2065098;69;20148;-75
2022/12/22 05:19:56;;;;;;;30.52;17.40;;;;;;;2.28;80.30;92446.34;2064930;69;20231;-74
2022/12/22 05:22:21;;;;;;;25.48;13.32;;;;;;;2.38;80.02;92430.53;2065083;69;20151;-75
2022/12/22 05:24:47;;;;;;;16.55;9.50;;;;;;;2.31;80.89;92406.31;2065224;69;20145;-75
2022/12/22 05:27:13;;;;;;;18.92;10.55;;;;;;;2.58;81.18;92408.56;2070338;69;20159;-75
2022/12/22 05:29:39;;;;;;;9.80;4.28;;;;;;;2.65;79.96;92405.72;2070835;69;20145;-75
2022/12/22 05:32:04;;;;;;;6.97;3.58;;;;;;;2.71;80.23;92405.53;2070504;69;20144;-75
2022/12/22 05:34:30;;;;;;;4.63;2.78;;;;;;;2.63;80.75;92410.38;2067274;69;20148;-75
2022/12/22 05:36:55;;;;;;;9.90;5.53;;;;;;;2.29;81.40;92409.69;2066491;69;20219;-77
2022/12/22 05:39:21;;;;;;;12.95;6.40;;;;;;;2.40;80.52;92408.50;2065638;69;20165;-75
2022/12/22 05:41:46;;;;;;;11.05;5.95;;;;;;;2.40;80.32;92411.28;2064844;69;20224;-76
2022/12/22 05:44:12;;;;;;;10.95;5.75;;;;;;;2.42;79.76;92407.91;2065055;69;20148;-76
2022/12/22 05:46:38;;;;;;;7.68;4.00;;;;;;;2.54;79.42;92401.38;2065010;69;20164;-76
2022/12/22 05:49:04;;;;;;;14.68;5.80;;;;;;;2.36;80.07;92408.16;2065032;69;20187;-75
2022/12/22 05:51:29;;;;;;;13.73;7.45;;;;;;;2.32;80.49;92413.34;2064340;69;20157;-76
2022/12/22 05:53:55;;;;;;;14.52;7.35;;;;;;;2.40;79.38;92416.84;2064831;69;20623;-75
2022/12/22 05:56:21;;;;;;;11.88;6.93;;;;;;;2.22;79.22;92401.38;2064961;69;20145;-75
2022/12/22 05:58:47;;;;;;;11.85;6.28;;;;;;;2.40;79.60;92414.06;2064821;69;20141;-75
2022/12/22 06:01:13;;;;;;;104.22;38.33;;;;;;;2.21;79.60;92411.75;2064920;69;20212;-75
2022/12/22 06:03:38;;;;;;;52.58;21.45;;;;;;;2.21;79.15;92411.03;2064675;69;20149;-76
2022/12/22 06:06:04;;;;;;;65.40;25.05;;;;;;;2.28;78.68;92413.72;2064295;69;20214;-76
2022/12/22 06:08:30;;;;;;;48.45;18.98;;;;;;;2.16;78.95;92417.53;2064923;69;20180;-77
2022/12/22 06:10:57;;;;;;;186.60;55.75;;;;;;;1.90;79.17;92402.84;2064669;69;20145;-76
2022/12/22 06:13:24;;;;;;;352.30;96.65;;;;;;;1.86;80.10;92419.13;2064260;69;20141;-76
2022/12/22 06:15:50;;;;;;;211.23;58.78;;;;;;;1.95;79.73;92418.53;2064815;69;20160;-76
2022/12/22 06:18:16;;;;;;;159.40;47.72;;;;;;;1.99;78.64;92423.72;2064785;69;20143;-76
2022/12/22 06:20:44;;;;;;;74.40;24.90;;;;;;;1.86;79.86;92424.69;2064710;69;20319;-75
2022/12/22 06:23:10;;;;;;;136.80;43.25;;;;;;;1.92;79.04;92422.44;2064974;69;20157;-75
2022/12/22 06:25:37;;;;;;;98.45;31.98;;;;;;;1.91;78.67;92417.44;2064815;69;20145;-76
2022/12/22 06:28:03;;;;;;;38.15;13.38;;;;;;;1.91;79.34;92414.66;2064774;69;20588;-75
2022/12/22 06:30:31;;;;;;;27.02;11.63;;;;;;;1.96;79.31;92419.28;2064691;69;20145;-75
2022/12/22 06:32:58;;;;;;;31.90;13.18;;;;;;;1.89;79.71;92400.63;2064932;69;20622;-76
2022/12/22 06:35:24;;;;;;;42.30;16.50;;;;;;;1.97;78.77;92426.28;2064243;69;20571;-75
2022/12/22 06:37:49;;;;;;;46.40;20.70;;;;;;;1.74;78.64;92426.38;2064692;69;20148;-76
2022/12/22 06:40:16;;;;;;;42.55;17.83;;;;;;;1.82;79.22;92431.91;2064891;69;20152;-76
2022/12/22 06:45:26;;;;;;;35.67;14.65;;;;;;;1.78;78.56;92430.25;2064908;69;20215;-76
2022/12/22 06:47:51;;;;;;;25.65;10.45;;;;;;;1.84;78.69;92432.84;2064928;69;20149;-76
2022/12/22 06:50:17;;;;;;;26.67;10.82;;;;;;;1.77;79.47;92439.88;2064834;69;20149;-77
2022/12/22 06:52:43;;;;;;;23.83;10.02;;;;;;;1.79;79.71;92444.91;2064802;69;20156;-77
2022/12/22 06:55:09;;;;;;;51.92;23.75;;;;;;;1.45;81.08;92450.88;2064224;69;20591;-77
2022/12/22 06:57:34;;;;;;;56.22;27.58;;;;;;;1.63;81.05;92452.50;2064658;69;20157;-77
2022/12/22 07:00:00;;;;;;;44.05;22.02;;;;;;;1.63;79.72;92446.97;2064798;69;20156;-76
2022/12/22 07:02:25;;;;;;;40.35;20.65;;;;;;;1.68;79.64;92439.72;2065014;69;20500;-76
2022/12/22 07:04:51;;;;;;;37.00;17.42;;;;;;;1.73;79.30;92450.63;2065033;69;20247;-76
2022/12/22 07:07:17;;;;;;;25.13;11.23;;;;;;;1.76;79.25;92457.09;2064248;69;20507;-76
2022/12/22 07:09:42;;;;;;;31.70;14.48;;;;;;;1.75;79.53;92461.19;2064650;69;20153;-76
2022/12/22 07:12:08;;;;;;;41.78;22.15;;;;;;;1.67;80.17;92452.88;2064706;69;20623;-76
2022/12/22 07:14:35;;;;;;;45.65;24.25;;;;;;;1.18;83.06;92459.59;2064882;69;20152;-76
2022/12/22 07:17:00;;;;;;;41.17;23.35;;;;;;;1.58;80.73;92456.22;2064719;69;20235;-76
2022/12/22 07:19:26;;;;;;;39.65;20.15;;;;;;;1.55;80.64;92468.44;2064170;69;20152;-76
2022/12/22 07:21:52;;;;;;;28.08;15.20;;;;;;;1.84;80.69;92468.94;2064701;69;20145;-75
2022/12/22 07:24:22;;;;;;;27.05;14.85;;;;;;;1.77;80.47;92467.63;2064217;69;20183;-77
2022/12/22 07:26:49;;;;;;;36.95;18.65;;;;;;;1.85;80.53;92475.22;2065096;69;20219;-77
2022/12/22 07:29:15;;;;;;;33.72;17.10;;;;;;;1.88;80.40;92483.16;2065143;69;20184;-76
2022/12/22 07:31:40;;;;;;;19.25;10.70;;;;;;;1.92;80.62;92472.41;2065046;69;20176;-76
2022/12/22 07:34:06;;;;;;;8.88;4.72;;;;;;;2.22;80.71;92471.56;2064836;69;20144;-75
2022/12/22 07:36:31;;;;;;;5.85;3.85;;;;;;;2.48;80.09;92478.66;2064828;69;20662;-76
2022/12/22 07:38:57;;;;;;;4.78;3.08;;;;;;;2.61;79.51;92482.47;2064608;69;20145;-76
2022/12/22 07:44:07;;;;;;;32.13;17.60;;;;;;;2.63;78.57;92475.06;2064959;69;20267;-76
2022/12/22 07:46:35;;;;;;;62.40;30.58;;;;;;;2.58;78.28;92467.66;2064791;69;20235;-76
2022/12/22 07:51:46;;;;;;;10.63;5.20;;;;;;;2.71;78.50;92475.00;2064545;69;20156;-76
2022/12/22 07:54:14;;;;;;;7.82;3.80;;;;;;;2.82;77.98;92473.81;2064409;69;20247;-76
2022/12/22 07:56:40;;;;;;;6.07;3.40;;;;;;;2.77;78.70;92486.63;2064545;69;20136;-76
2022/12/22 07:59:06;;;;;;;5.35;3.00;;;;;;;2.95;78.09;92482.63;2064605;69;20144;-77
2022/12/22 08:01:32;;;;;;;7.88;5.22;;;;;;;2.80;78.18;92477.91;2062692;69;20353;-75
2022/12/22 08:03:59;;;;;;;14.70;8.65;;;;;;;2.78;78.19;92477.00;2064279;69;20204;-76
2022/12/22 08:06:25;;;;;;;24.98;11.90;;;;;;;2.84;77.90;92485.88;2064481;69;20144;-75
2022/12/22 08:08:51;;;;;;;15.55;9.85;;;;;;;2.99;77.71;92494.09;2064826;69;20164;-76
2022/12/22 08:11:16;;;;;;;18.33;11.27;;;;;;;2.79;78.32;92493.13;2064503;69;20137;-76
2022/12/22 08:13:42;;;;;;;19.67;11.38;;;;;;;3.06;77.56;92490.50;2064267;69;20233;-75
2022/12/22 08:16:10;;;;;;;23.48;12.95;;;;;;;3.24;77.22;92485.00;2064444;69;20190;-76
2022/12/22 08:18:40;;;;;;;16.73;10.40;;;;;;;3.19;76.58;92461.66;2061164;69;20457;-76
2022/12/22 08:21:07;;;;;;;22.30;12.40;;;;;;;3.19;77.53;92466.50;2064360;69;20152;-75
2022/12/22 08:23:34;;;;;;;20.38;11.85;;;;;;;3.31;77.03;92467.53;2064422;69;20165;-75
2022/12/22 08:26:06;;;;;;;17.70;10.60;;;;;;;3.19;77.33;92467.25;2063363;69;20156;-76
2022/12/22 08:28:35;;;;;;;15.80;9.43;;;;;;;3.41;76.95;92464.84;2064599;69;20153;-75
2022/12/22 08:31:02;;;;;;;8.48;4.22;;;;;;;3.48;77.24;92461.22;2064632;69;20522;-78
2022/12/22 08:33:28;;;;;;;19.40;10.55;;;;;;;2.90;77.12;92460.63;2064922;69;20602;-75
2022/12/22 08:35:55;;;;;;;18.95;11.18;;;;;;;3.25;77.16;92461.44;2065066;69;20742;-76
2022/12/22 08:38:22;;;;;;;19.25;11.55;;;;;;;3.38;76.10;92455.56;2064996;69;20224;-76
2022/12/22 08:40:48;;;;;;;31.63;18.92;;;;;;;3.47;76.25;92445.84;2064889;69;20193;-75
2022/12/22 08:43:15;;;;;;;33.10;17.70;;;;;;;3.05;77.14;92450.09;2065163;69;20653;-77
2022/12/22 08:45:41;;;;;;;32.58;18.60;;;;;;;3.26;76.99;92460.16;2064984;69;20240;-77
2022/12/22 08:48:09;;;;;;;30.33;17.40;;;;;;;3.33;76.32;92459.34;2064893;69;20240;-79
2022/12/22 08:50:35;;;;;;;24.52;12.05;;;;;;;3.38;76.13;92461.13;2065081;69;20172;-78
2022/12/22 08:53:05;;;;;;;21.60;12.90;;;;;;;3.52;75.37;92458.78;2064995;69;20184;-75
2022/12/22 08:55:30;;;;;;;22.38;14.48;;;;;;;3.57;76.65;92460.59;2064898;69;20615;-76
2022/12/22 08:57:56;;;;;;;28.83;17.13;;;;;;;3.87;75.58;92467.19;2065132;69;20179;-74
2022/12/22 09:00:24;;;;;;;22.73;13.02;;;;;;;4.30;75.74;92466.47;2065056;69;20184;-76
2022/12/22 09:02:51;;;;;;;24.83;14.40;;;;;;;4.46;77.94;92466.31;2064858;69;20227;-76
2022/12/22 09:05:17;;;;;;;22.00;13.27;;;;;;;4.46;75.90;92472.63;2064917;69;20598;-76
2022/12/22 09:07:45;;;;;;;21.25;13.60;;;;;;;4.53;74.92;92477.34;2064314;69;20488;-76
2022/12/22 09:10:12;;;;;;;23.13;13.60;;;;;;;4.66;74.44;92483.88;2064907;69;20141;-76
2022/12/22 09:12:38;;;;;;;23.08;13.73;;;;;;;4.77;73.60;92489.69;2064940;69;20236;-76
2022/12/22 09:15:05;;;;;;;20.33;12.82;;;;;;;5.08;73.32;92503.19;2064936;69;20248;-77
2022/12/22 09:17:31;;;;;;;23.73;13.63;;;;;;;5.42;74.10;92502.31;2065003;69;20144;-77
2022/12/22 09:19:57;;;;;;;24.83;12.25;;;;;;;5.22;73.75;92478.44;2064885;69;20149;-77
2022/12/22 09:22:23;;;;;;;17.20;9.90;;;;;;;5.03;73.04;92465.13;2064273;69;20187;-76
2022/12/22 09:24:49;;;;;;;17.00;9.90;;;;;;;5.56;71.70;92438.44;2064816;69;20136;-77
2022/12/22 09:27:15;;;;;;;19.15;12.70;;;;;;;5.89;71.22;92427.59;2064429;69;20160;-76
2022/12/22 09:29:40;;;;;;;26.13;15.68;;;;;;;6.48;70.45;92422.72;2064945;69;20632;-76
2022/12/22 09:32:06;;;;;;;16.10;8.93;;;;;;;6.70;67.66;92435.50;2064887;69;20490;-76
2022/12/22 09:34:32;;;;;;;18.13;8.50;;;;;;;6.86;67.77;92425.44;2064868;69;20600;-76
2022/12/22 09:36:57;;;;;;;15.70;10.18;;;;;;;5.61;68.77;92434.63;2065174;69;20137;-76
2022/12/22 09:39:26;;;;;;;18.98;10.45;;;;;;;6.42;68.19;92427.91;2064833;69;20317;-77
2022/12/22 09:41:53;;;;;;;18.17;9.57;;;;;;;7.07;67.51;92435.97;2064294;69;20148;-77
2022/12/22 09:44:24;;;;;;;13.23;7.63;;;;;;;7.53;64.24;92422.94;2064902;69;20183;-76
2022/12/22 09:46:51;;;;;;;7.55;3.80;;;;;;;7.37;62.20;92412.09;2064917;69;20247;-77
2022/12/22 09:49:18;;;;;;;4.70;3.20;;;;;;;8.04;61.26;92404.63;2064937;69;20177;-77
2022/12/22 09:51:52;;;;;;;4.88;3.00;;;;;;;8.26;57.97;92418.63;2064890;69;20157;-77
2022/12/22 09:54:18;;;;;;;3.55;2.55;;;;;;;8.78;56.65;92409.28;2064707;69;20141;-78
2022/12/22 09:56:44;;;;;;;5.35;2.90;;;;;;;9.26;57.14;92405.94;2064788;69;20180;-75
2022/12/22 09:59:15;;;;;;;7.90;4.90;;;;;;;8.60;58.45;92404.00;2064293;69;20251;-75
2022/12/22 10:01:56;;;;;;;7.65;4.57;;;;;;;9.24;59.14;92410.69;2064768;69;20137;-76
2022/12/22 10:04:31;;;;;;;14.88;7.25;;;;;;;8.17;61.22;92400.53;2064857;69;20198;-75
2022/12/22 10:07:29;;;;;;;23.65;11.02;;;;;;;9.43;59.69;92391.50;2064873;69;20174;-77
2022/12/22 10:09:54;;;;;;;13.75;7.70;;;;;;;9.77;57.05;92372.44;2064991;69;20228;-76
2022/12/22 10:12:23;;;;;;;17.95;8.70;;;;;;;10.18;56.25;92358.63;2064810;69;20228;-75
2022/12/22 10:14:51;;;;;;;6.28;3.60;;;;;;;10.43;53.57;92340.31;2064842;69;20173;-76
2022/12/22 10:17:30;;;;;;;4.03;2.50;;;;;;;10.23;50.75;92344.78;2064716;69;20240;-75
2022/12/22 10:20:28;;;;;;;16.05;8.98;;;;;;;8.79;57.48;92365.84;2064797;69;20600;-76
2022/12/22 10:23:05;;;;;;;12.57;6.93;;;;;;;10.89;54.23;92358.28;2064223;69;20183;-77
2022/12/22 10:25:37;;;;;;;14.05;8.48;;;;;;;9.08;56.25;92388.00;2064030;69;20148;-76
2022/12/22 10:28:07;;;;;;;12.85;7.88;;;;;;;10.76;53.55;92401.22;2064754;69;20149;-77
2022/12/22 10:30:36;;;;;;;14.05;7.63;;;;;;;11.65;51.58;92380.63;2064795;69;20140;-75
2022/12/22 10:33:05;;;;;;;16.88;10.50;;;;;;;10.54;50.68;92409.91;2064821;69;20232;-75
2022/12/22 10:35:45;;;;;;;16.85;9.32;;;;;;;11.62;51.43;92386.78;2064735;69;20153;-75
2022/12/22 10:38:19;;;;;;;11.32;7.10;;;;;;;13.09;49.96;92351.59;2064803;69;20148;-75
2022/12/22 10:40:48;;;;;;;13.82;8.80;;;;;;;12.13;49.13;92361.16;2064555;69;20149;-75
2022/12/22 10:43:23;;;;;;;14.98;9.40;;;;;;;12.08;50.92;92371.53;2064774;69;20133;-75
2022/12/22 10:45:51;;;;;;;12.50;8.20;;;;;;;13.78;47.46;92334.88;2064632;69;20634;-76
2022/12/22 10:48:27;;;;;;;9.02;6.40;;;;;;;12.94;44.87;92341.75;2064142;69;20144;-75
2022/12/22 10:50:53;;;;;;;11.68;7.03;;;;;;;12.50;48.55;92334.72;2064631;69;20133;-75
2022/12/22 10:53:18;;;;;;;11.13;7.15;;;;;;;15.08;44.69;92311.16;2064596;69;20153;-76
2022/12/22 10:55:45;;;;;;;11.15;7.07;;;;;;;14.97;44.30;92334.78;2064679;69;20236;-75
2022/12/22 10:58:18;;;;;;;8.32;6.07;;;;;;;16.17;42.74;92321.44;2064899;69;20152;-76
2022/12/22 11:00:46;;;;;;;;;;;;;;;11.79;45.39;92337.59;2064866;69;20160;-76
2022/12/22 11:03:13;;;;;;;11.43;7.70;;;;;;;12.47;46.91;92328.25;2064721;69;20045;-75
2022/12/22 11:05:43;;;;;;;15.93;10.98;;;;;;;9.99;49.80;92339.25;2064618;69;20183;-75
2022/12/22 11:08:17;;;;;;;18.15;12.23;;;;;;;9.35;53.20;92348.19;2064696;69;20156;-75
2022/12/22 11:10:58;;;;;;;16.48;11.07;;;;;;;9.72;52.32;92339.81;2064721;69;20583;-75
2022/12/22 11:13:40;;;;;;;45.80;28.77;;;;;;;9.96;52.25;92348.91;2064742;69;20227;-76
2022/12/22 11:16:32;;;;;;;21.55;13.70;;;;;;;10.63;51.65;92347.06;2064724;69;20149;-76
2022/12/22 11:19:15;;;;;;;12.93;8.40;;;;;;;10.05;52.15;92299.50;2064623;69;20349;-76
2022/12/22 11:21:46;;;;;;;10.98;7.20;;;;;;;10.42;51.76;92305.09;2064665;69;20295;-75
2022/12/22 11:24:50;;;;;;;12.55;8.07;;;;;;;10.45;51.96;92301.03;2064666;69;20184;-75
2022/12/22 11:27:21;;;;;;;;;;;;;;;9.87;52.56;92302.00;2064891;69;20180;-75
2022/12/22 11:30:06;;;;;;;13.57;8.43;;;;;;;9.48;53.81;92296.97;2065707;69;20072;-76
2022/12/22 11:32:47;;;;;;;15.80;9.05;;;;;;;8.68;56.13;92339.25;2064704;69;20141;-74
2022/12/22 11:35:41;;;;;;;13.75;8.40;;;;;;;8.44;57.20;92273.94;2064611;69;20169;-74
2022/12/22 11:38:17;;;;;;;27.52;15.07;;;;;;;6.79;61.26;92347.28;2062595;69;20152;-74
2022/12/22 11:40:50;;;;;;;13.02;8.63;;;;;;;8.20;58.30;92345.31;2064475;69;20133;-75
2022/12/22 11:43:34;;;;;;;14.68;8.90;;;;;;;9.03;55.99;92344.16;2064633;69;20145;-75
2022/12/22 11:46:06;;;;;;;15.52;9.43;;;;;;;9.16;55.89;92321.81;2064520;69;20175;-75
2022/12/22 11:48:37;;;;;;;12.05;8.13;;;;;;;8.43;57.07;92319.41;2064670;69;20215;-76
2022/12/22 11:51:38;;;;;;;13.73;8.85;;;;;;;8.65;56.59;92318.72;2064646;69;20172;-76
2022/12/22 11:54:18;;;;;;;15.77;10.10;;;;;;;8.84;56.25;92317.78;2064540;69;20239;-76
2022/12/22 11:56:49;;;;;;;17.55;11.00;;;;;;;6.62;61.94;92323.78;2064536;69;20232;-75
2022/12/22 11:59:45;;;;;;;17.33;11.07;;;;;;;7.70;60.07;92338.66;2064497;69;20168;-75
2022/12/22 12:02:20;;;;;;;13.00;7.70;;;;;;;7.92;59.50;92272.06;2064289;69;20149;-75
2022/12/22 12:05:10;;;;;;;19.45;11.10;;;;;;;6.75;61.71;92319.03;2064560;69;20168;-75
2022/12/22 12:07:41;;;;;;;13.75;9.30;;;;;;;7.10;62.77;92288.47;2064550;69;20159;-75
2022/12/22 12:10:23;;;;;;;12.02;7.93;;;;;;;7.21;62.48;92301.84;2064509;69;20141;-75
2022/12/22 12:13:05;;;;;;;14.43;9.13;;;;;;;7.55;60.97;92275.34;2064537;69;20173;-75
2022/12/22 12:15:39;;;;;;;14.93;8.93;;;;;;;6.47;63.65;92312.94;2064630;69;20255;-75
2022/12/22 12:18:27;;;;;;;14.52;8.90;;;;;;;7.46;61.97;92306.22;2064461;69;20133;-75
2022/12/22 12:21:24;;;;;;;15.60;9.90;;;;;;;7.17;62.75;92307.16;2063856;69;20149;-75
2022/12/22 12:24:10;;;;;;;19.17;10.07;;;;;;;7.60;61.03;92310.69;2064545;69;20247;-75
2022/12/22 12:26:54;;;;;;;17.95;10.48;;;;;;;7.67;60.58;92317.44;2064522;69;20499;-72
2022/12/22 12:29:25;;;;;;;19.02;10.90;;;;;;;7.47;61.05;92302.09;2064482;69;20539;-74
2022/12/22 12:32:04;;;;;;;15.63;9.88;;;;;;;7.50;61.28;92340.84;2064457;69;20159;-74
2022/12/22 12:34:36;;;;;;;14.52;7.93;;;;;;;7.47;61.34;92330.09;2064629;69;20156;-74
2022/12/22 12:37:10;;;;;;;10.38;6.50;;;;;;;7.92;59.60;92319.00;2064452;69;20157;-74
2022/12/22 12:39:58;;;;;;;11.55;6.55;;;;;;;7.57;60.67;92322.38;2064349;69;20137;-75
2022/12/22 12:42:36;;;;;;;16.83;8.85;;;;;;;7.29;61.40;92330.38;2064417;69;20156;-75
2022/12/22 12:45:04;;;;;;;28.05;17.60;;;;;;;7.12;62.24;92330.63;2063880;69;20284;-76
2022/12/22 12:47:34;;;;;;;29.92;16.13;;;;;;;6.78;64.04;92335.34;2064609;69;20576;-74
2022/12/22 12:50:10;;;;;;;43.30;23.70;;;;;;;7.59;61.58;92333.72;2064423;69;20165;-75
2022/12/22 12:52:38;;;;;;;47.40;26.65;;;;;;;7.72;61.28;92338.78;2064533;69;20265;-75
2022/12/22 12:55:28;;;;;;;37.83;21.90;;;;;;;7.96;60.35;92322.06;2064408;69;20626;-76
2022/12/22 12:57:56;;;;;;;25.08;14.50;;;;;;;7.53;60.78;92330.50;2064506;69;20145;-75
2022/12/22 13:00:30;;;;;;;23.60;14.43;;;;;;;7.66;61.18;92338.38;2064456;69;20189;-75
2022/12/22 13:02:59;;;;;;;24.05;14.15;;;;;;;7.72;60.80;92313.56;2064498;69;20137;-76
2022/12/22 13:05:48;;;;;;;17.08;9.73;;;;;;;7.69;60.04;92309.16;2064359;69;20207;-76
2022/12/22 13:08:30;;;;;;;22.77;13.00;;;;;;;7.82;60.28;92321.88;2064472;69;20153;-75
2022/12/22 13:10:56;;;;;;;22.13;13.10;;;;;;;7.79;60.68;92321.03;2064495;69;20153;-76
2022/12/22 13:13:21;;;;;;;21.58;13.57;;;;;;;7.87;60.43;92324.34;2064585;69;20144;-76
2022/12/22 13:16:07;;;;;;;23.83;15.07;;;;;;;7.61;61.36;92309.38;2064870;69;20137;-76
2022/12/22 13:18:33;;;;;;;20.02;12.88;;;;;;;7.53;61.83;92314.44;2062296;69;20153;-76
2022/12/22 13:21:06;;;;;;;30.92;17.55;;;;;;;7.63;61.45;92319.97;2064245;69;20163;-74
2022/12/22 13:23:37;;;;;;;31.95;17.55;;;;;;;7.74;60.95;92308.06;2064305;69;20257;-75
2022/12/22 13:26:19;;;;;;;32.17;18.00;;;;;;;7.68;60.95;92307.69;2064792;69;20256;-74
2022/12/22 13:28:56;;;;;;;33.00;19.48;;;;;;;7.42;61.68;92303.16;2064866;69;20591;-75
2022/12/22 13:31:27;;;;;;;33.92;19.67;;;;;;;7.67;61.40;92297.81;2064946;69;20212;-75
2022/12/22 13:34:31;;;;;;;47.47;28.20;;;;;;;7.27;62.63;92301.50;2064900;69;20603;-75
2022/12/22 13:37:09;;;;;;;44.80;25.63;;;;;;;7.39;62.59;92289.03;2057437;69;20141;-78
2022/12/22 13:39:35;;;;;;;30.48;19.95;;;;;;;7.25;63.31;92279.72;2064874;69;20156;-75
2022/12/22 13:42:05;;;;;;;37.65;22.27;;;;;;;6.99;63.92;92289.16;2064836;69;20176;-74
2022/12/22 13:44:32;;;;;;;33.78;18.60;;;;;;;7.14;63.58;92294.34;2064808;69;20243;-75
2022/12/22 13:47:05;;;;;;;24.85;13.95;;;;;;;7.35;63.19;92277.56;2064867;69;20312;-75
2022/12/22 13:49:33;;;;;;;23.65;13.15;;;;;;;7.55;62.32;92275.34;2064826;69;20145;-74
2022/12/22 13:52:00;;;;;;;44.67;25.27;;;;;;;6.92;64.43;92299.22;2064912;69;20157;-74
2022/12/22 13:54:36;;;;;;;23.40;14.07;;;;;;;6.81;64.82;92297.78;2064605;69;20623;-73
2022/12/22 13:57:04;;;;;;;23.65;12.57;;;;;;;7.16;63.86;92297.31;2064739;69;20591;-74
2022/12/22 13:59:41;;;;;;;19.20;12.23;;;;;;;6.95;64.08;92288.88;2064711;69;20195;-74
2022/12/22 14:02:10;;;;;;;22.67;13.65;;;;;;;6.83;65.18;92289.53;2064909;69;20241;-73
2022/12/22 14:04:37;;;;;;;23.60;14.65;;;;;;;7.19;63.11;92309.34;2064704;69;20148;-74
2022/12/22 14:07:14;;;;;;;25.02;13.38;;;;;;;6.96;64.00;92302.25;2064764;69;20148;-74
2022/12/22 14:09:47;;;;;;;22.90;11.25;;;;;;;7.26;63.32;92311.97;2064660;69;20141;-74
2022/12/22 14:12:17;;;;;;;20.50;10.63;;;;;;;6.99;64.43;92294.75;2064846;69;20129;-74
2022/12/22 14:14:46;;;;;;;22.20;12.27;;;;;;;7.28;63.59;92291.75;2064772;69;20164;-74
2022/12/22 14:17:18;;;;;;;17.92;10.02;;;;;;;6.85;64.93;92314.84;2064746;69;20244;-75
2022/12/22 14:19:43;;;;;;;18.25;10.10;;;;;;;6.66;64.91;92328.91;2064696;69;20156;-74
2022/12/22 14:22:16;;;;;;;20.88;10.82;;;;;;;6.96;64.13;92321.13;2064612;69;20165;-74
2022/12/22 14:24:47;;;;;;;19.98;10.05;;;;;;;6.93;64.13;92311.13;2064459;69;20164;-75
2022/12/22 14:27:28;;;;;;;17.95;10.45;;;;;;;6.92;64.52;92304.81;2064713;69;20133;-74
2022/12/22 14:29:56;;;;;;;18.92;10.15;;;;;;;6.99;64.52;92323.47;2064722;69;20153;-75
2022/12/22 14:32:37;;;;;;;19.88;12.45;;;;;;;6.50;65.20;92328.50;2064721;69;20601;-74
2022/12/22 14:35:14;;;;;;;66.35;38.03;;;;;;;6.73;64.76;92322.41;2064756;69;20232;-74
2022/12/22 14:37:40;;;;;;;17.45;10.48;;;;;;;6.81;65.04;92328.56;2064724;69;20262;-75
2022/12/22 14:40:27;;;;;;;21.58;12.63;;;;;;;6.38;66.12;92357.72;2064706;69;20192;-75
2022/12/22 14:42:53;;;;;;;75.50;50.25;;;;;;;6.64;65.31;92353.94;2064853;69;20141;-75
2022/12/22 14:45:18;;;;;;;29.55;18.60;;;;;;;6.93;64.42;92345.44;2064762;69;20180;-75
2022/12/22 14:47:44;;;;;;;24.85;14.15;;;;;;;6.49;64.99;92351.50;2064806;69;20591;-74
2022/12/22 14:50:17;;;;;;;24.13;14.43;;;;;;;6.48;64.90;92344.44;2064749;69;20195;-75
2022/12/22 14:52:48;;;;;;;23.33;13.68;;;;;;;6.54;65.52;92337.19;2064690;69;20137;-75
2022/12/22 14:55:34;;;;;;;23.38;13.98;;;;;;;6.50;65.58;92345.28;2064678;69;20221;-75
2022/12/22 14:58:05;;;;;;;19.08;9.80;;;;;;;6.74;65.11;92331.56;2064727;69;20169;-73
2022/12/22 15:00:45;;;;;;;12.25;7.25;;;;;;;6.71;65.22;92316.69;2064608;69;20135;-75
2022/12/22 15:03:31;;;;;;;17.70;10.30;;;;;;;6.36;64.80;92307.97;2064680;69;20226;-73
2022/12/22 15:06:25;;;;;;;20.50;11.13;;;;;;;6.60;64.25;92334.09;2064719;69;20141;-74
2022/12/22 15:09:10;;;;;;;17.30;8.98;;;;;;;6.70;63.63;92309.63;2064717;69;20145;-76
2022/12/22 15:12:02;;;;;;;17.00;10.00;;;;;;;6.70;63.50;92337.59;2064786;69;20145;-75
2022/12/22 15:14:30;;;;;;;15.63;8.20;;;;;;;6.57;64.11;92340.88;2064797;69;20171;-79
2022/12/22 15:16:58;;;;;;;18.65;10.15;;;;;;;6.59;64.21;92319.34;2064642;69;20160;-77
2022/12/22 15:19:28;;;;;;;19.08;9.25;;;;;;;5.95;66.06;92335.13;2064615;69;20160;-76
2022/12/22 15:21:54;;;;;;;21.15;11.40;;;;;;;6.25;65.61;92353.31;2064778;69;20165;-74
2022/12/22 15:24:20;;;;;;;20.15;11.35;;;;;;;6.43;65.16;92349.00;2063973;69;20137;-74
2022/12/22 15:26:46;;;;;;;16.35;9.60;;;;;;;6.29;65.37;92351.53;2064608;69;20523;-74